createdAt,value
2023-04-29T00:01:06.099Z,92.8
2023-04-29T00:11:03.503Z,92.5
2023-04-29T00:21:02.741Z,91.5
2023-04-29T00:31:02.689Z,91.0
2023-04-29T00:41:03.750Z,90.9
2023-04-29T00:51:02.866Z,90.7
2023-04-29T01:01:03.020Z,90.6
2023-04-29T01:11:02.883Z,90.5
2023-04-29T01:21:03.009Z,90.3
2023-04-29T01:31:03.231Z,90.1
2023-04-29T01:41:02.963Z,90.2
2023-04-29T01:51:03.224Z,89.8
2023-04-29T02:01:03.396Z,89.9
2023-04-29T02:11:03.896Z,89.8
2023-04-29T02:21:03.184Z,89.7
2023-04-29T02:31:03.342Z,89.7
2023-04-29T02:41:03.560Z,89.9
2023-04-29T02:51:03.574Z,90.0
2023-04-29T03:01:03.325Z,89.6
2023-04-29T03:11:03.314Z,89.2
2023-04-29T03:21:03.374Z,89.0
2023-04-29T03:31:03.221Z,88.8
2023-04-29T03:41:03.415Z,88.4
2023-04-29T03:51:03.322Z,87.9
2023-04-29T04:01:03.397Z,87.9
2023-04-29T04:11:05.870Z,88.2
2023-04-29T04:21:03.697Z,88.2
2023-04-29T04:31:03.928Z,88.2
2023-04-29T04:41:03.740Z,88.7
2023-04-29T04:51:04.040Z,88.9
2023-04-29T05:01:03.859Z,89.0
2023-04-29T05:11:03.774Z,89.0
2023-04-29T05:21:03.718Z,88.7
2023-04-29T05:31:03.784Z,88.7
2023-04-29T05:41:03.730Z,88.2
2023-04-29T05:51:03.775Z,88.6
2023-04-29T06:01:03.803Z,88.3
2023-04-29T06:11:03.829Z,88.4
2023-04-29T06:21:03.746Z,88.1
2023-04-29T06:31:03.749Z,88.3
2023-04-29T06:41:04.258Z,87.3
2023-04-29T06:51:04.128Z,87.0
2023-04-29T07:01:04.097Z,85.2
2023-04-29T07:11:04.186Z,85.4
2023-04-29T07:21:04.646Z,84.3
2023-04-29T07:31:04.440Z,82.1
2023-04-29T07:41:04.817Z,82.3
2023-04-29T07:51:06.550Z,81.8
2023-04-29T08:01:05.358Z,80.9
2023-04-29T08:11:06.155Z,79.9
2023-04-29T08:21:05.129Z,79.2
2023-04-29T08:31:05.187Z,77.8
2023-04-29T08:41:05.113Z,77.2
2023-04-29T08:51:05.050Z,77.1
2023-04-29T09:01:05.616Z,76.1
2023-04-29T09:11:05.227Z,71.5
2023-04-29T09:21:05.265Z,70.1
2023-04-29T09:31:05.575Z,68.6
2023-04-29T09:41:05.351Z,70.5
2023-04-29T09:51:05.191Z,69.0
2023-04-29T10:01:06.325Z,68.6
2023-04-29T10:11:06.298Z,67.6
2023-04-29T10:21:05.428Z,67.2
2023-04-29T10:31:05.572Z,65.8
2023-04-29T10:41:05.358Z,64.7
2023-04-29T10:51:05.482Z,62.9
2023-04-29T11:01:05.503Z,66.6
2023-04-29T11:11:05.334Z,63.3
2023-04-29T11:21:06.436Z,67.0
2023-04-29T11:31:05.595Z,62.6
2023-04-29T11:41:05.799Z,60.9
2023-04-29T11:51:06.611Z,62.7
2023-04-29T12:01:05.513Z,62.5
2023-04-29T12:11:06.084Z,61.4
2023-04-29T12:21:06.167Z,61.1
2023-04-29T12:31:06.222Z,59.3
2023-04-29T12:41:06.171Z,57.8
2023-04-29T12:51:05.997Z,58.5
2023-04-29T13:01:06.236Z,56.7
2023-04-29T13:11:07.652Z,59.7
2023-04-29T13:21:07.162Z,58.8
2023-04-29T13:31:06.294Z,58.6
2023-04-29T13:41:11.030Z,56.0
2023-04-29T13:51:46.027Z,55.7
2023-04-29T14:01:37.820Z,55.5
2023-04-29T14:11:07.041Z,52.2
2023-04-29T14:21:06.338Z,52.3
2023-04-29T14:31:06.185Z,56.3
2023-04-29T14:41:06.144Z,53.1
2023-04-29T14:51:06.310Z,55.4
2023-04-29T15:01:06.804Z,52.8
2023-04-29T15:11:06.417Z,56.0
2023-04-29T15:21:06.652Z,55.9
2023-04-29T15:31:06.457Z,57.4
2023-04-29T15:41:07.000Z,55.8
2023-04-29T15:51:06.298Z,55.5
2023-04-29T16:01:06.445Z,54.8
2023-04-29T16:11:06.340Z,54.8
2023-04-29T16:21:06.302Z,54.0
2023-04-29T16:31:06.391Z,54.9
2023-04-29T16:41:06.385Z,54.8
2023-04-29T16:51:07.023Z,55.0
2023-04-29T17:01:06.610Z,54.5
2023-04-29T17:11:06.842Z,54.8
2023-04-29T17:21:06.437Z,57.5
2023-04-29T17:31:06.775Z,57.4
2023-04-29T17:41:06.389Z,58.1
2023-04-29T17:51:06.523Z,60.1
2023-04-29T18:01:06.819Z,60.5
2023-04-29T18:11:06.494Z,61.5
2023-04-29T18:21:06.506Z,62.2
2023-04-29T18:31:06.883Z,64.2
2023-04-29T18:41:06.847Z,66.2
2023-04-29T18:51:06.616Z,67.1
2023-04-29T19:01:06.725Z,68.2
2023-04-29T19:11:06.585Z,69.2
2023-04-29T19:21:07.749Z,70.4
2023-04-29T19:31:06.606Z,71.6
2023-04-29T19:41:06.694Z,72.7
2023-04-29T19:51:06.589Z,73.4
2023-04-29T20:01:06.873Z,74.5
2023-04-29T20:11:06.473Z,75.0
2023-04-29T20:21:06.576Z,75.3
2023-04-29T20:31:07.212Z,76.0
2023-04-29T20:41:06.693Z,76.6
2023-04-29T20:51:06.512Z,77.5
2023-04-29T21:01:06.612Z,77.5
2023-04-29T21:11:06.921Z,78.0
2023-04-29T21:21:06.489Z,78.7
2023-04-29T21:31:06.636Z,79.2
2023-04-29T21:41:06.674Z,79.7
2023-04-29T21:51:07.353Z,80.3
2023-04-29T22:01:06.670Z,80.8
2023-04-29T22:11:07.030Z,81.4
2023-04-29T22:21:06.718Z,82.0
2023-04-29T22:31:06.595Z,82.3
2023-04-29T22:41:06.615Z,83.3
2023-04-29T22:51:07.697Z,83.9
2023-04-29T23:01:09.469Z,84.4
2023-04-29T23:11:08.725Z,85.3
2023-04-29T23:21:09.668Z,85.2
2023-04-29T23:31:10.512Z,85.1
2023-04-29T23:41:09.646Z,85.1
2023-04-29T23:51:09.925Z,85.5
